createdAt,value
2022-10-07T00:00:33.214Z,1006.20
2022-10-07T00:01:33.278Z,1006.13
2022-10-07T00:02:34.227Z,1006.16
2022-10-07T00:03:33.189Z,1006.16
2022-10-07T00:04:33.165Z,1006.14
2022-10-07T00:05:33.185Z,1006.12
2022-10-07T00:06:33.158Z,1006.10
2022-10-07T00:07:33.153Z,1006.12
2022-10-07T00:08:33.138Z,1006.14
2022-10-07T00:09:33.125Z,1006.13
2022-10-07T00:10:33.720Z,1006.13
2022-10-07T00:11:33.114Z,1006.17
2022-10-07T00:12:33.106Z,1006.12
2022-10-07T00:13:34.790Z,1006.11
2022-10-07T00:14:33.086Z,1006.10
2022-10-07T00:15:34.827Z,1006.11
2022-10-07T00:16:33.166Z,1006.05
2022-10-07T00:17:33.062Z,1006.12
2022-10-07T00:18:34.719Z,1006.12
2022-10-07T00:19:33.045Z,1006.10
2022-10-07T00:20:33.038Z,1006.06
2022-10-07T00:21:33.055Z,1006.07
2022-10-07T00:22:33.020Z,1006.00
2022-10-07T00:23:33.015Z,1005.99
2022-10-07T00:24:33.004Z,1005.98
2022-10-07T00:25:33.009Z,1005.97
2022-10-07T00:26:34.835Z,1005.96
2022-10-07T00:27:32.985Z,1005.99
2022-10-07T00:28:33.065Z,1005.94
2022-10-07T00:30:33.506Z,1005.94
2022-10-07T00:31:33.434Z,1005.92
2022-10-07T00:32:33.427Z,1005.94
2022-10-07T00:33:34.507Z,1005.92
2022-10-07T00:34:34.505Z,1005.89
2022-10-07T00:35:35.374Z,1005.84
2022-10-07T00:36:34.484Z,1005.84
2022-10-07T00:37:35.379Z,1005.89
2022-10-07T00:38:35.376Z,1005.86
2022-10-07T00:39:34.468Z,1005.88
2022-10-07T00:40:34.457Z,1005.88
2022-10-07T00:41:34.451Z,1005.86
2022-10-07T00:42:34.445Z,1005.83
2022-10-07T00:43:34.446Z,1005.84
2022-10-07T00:44:34.439Z,1005.79
2022-10-07T00:45:34.463Z,1005.77
2022-10-07T00:46:34.412Z,1005.78
2022-10-07T00:47:34.409Z,1005.78
2022-10-07T00:48:35.299Z,1005.72
2022-10-07T00:49:34.404Z,1005.72
2022-10-07T00:50:34.385Z,1005.69
2022-10-07T00:51:34.376Z,1005.70
2022-10-07T00:52:34.371Z,1005.67
2022-10-07T00:53:34.361Z,1005.67
2022-10-07T00:54:34.360Z,1005.66
2022-10-07T00:55:34.348Z,1005.66
2022-10-07T00:56:34.345Z,1005.63
2022-10-07T00:57:34.331Z,1005.65
2022-10-07T00:58:34.323Z,1005.62
2022-10-07T00:59:35.876Z,1005.63
2022-10-07T01:00:34.304Z,1005.54
2022-10-07T01:01:34.356Z,1005.59
2022-10-07T01:02:34.384Z,1005.58
2022-10-07T01:03:34.283Z,1005.59
2022-10-07T01:04:34.275Z,1005.59
2022-10-07T01:05:34.273Z,1005.59
2022-10-07T01:06:34.269Z,1005.55
2022-10-07T01:07:34.262Z,1005.59
2022-10-07T01:08:34.251Z,1005.53
2022-10-07T01:09:34.245Z,1005.54
2022-10-07T01:10:34.805Z,1005.52
2022-10-07T01:11:34.219Z,1005.52
2022-10-07T01:12:34.213Z,1005.51
2022-10-07T01:13:34.807Z,1005.54
2022-10-07T01:14:34.197Z,1005.51
2022-10-07T01:15:34.201Z,1005.48
2022-10-07T01:16:34.218Z,1005.48
2022-10-07T01:17:35.882Z,1005.54
2022-10-07T01:18:34.166Z,1005.43
2022-10-07T01:19:34.157Z,1005.43
2022-10-07T01:20:34.151Z,1005.44
2022-10-07T01:21:34.147Z,1005.39
2022-10-07T01:22:34.131Z,1005.39
2022-10-07T01:23:34.123Z,1005.40
2022-10-07T01:24:34.116Z,1005.32
2022-10-07T01:25:34.817Z,1005.28
2022-10-07T01:26:34.113Z,1005.31
2022-10-07T01:27:34.096Z,1005.30
2022-10-07T01:28:34.154Z,1005.29
2022-10-07T01:29:34.079Z,1005.23
2022-10-07T01:30:34.111Z,1005.22
2022-10-07T01:31:34.813Z,1005.25
2022-10-07T01:32:34.067Z,1005.24
2022-10-07T01:33:34.052Z,1005.23
2022-10-07T01:34:34.035Z,1005.24
2022-10-07T01:35:34.030Z,1005.29
2022-10-07T01:36:34.025Z,1005.30
2022-10-07T01:37:34.020Z,1005.26
2022-10-07T01:38:34.024Z,1005.25
2022-10-07T01:39:33.998Z,1005.21
2022-10-07T01:40:33.994Z,1005.25
2022-10-07T01:41:34.027Z,1005.23
2022-10-07T01:42:33.982Z,1005.17
2022-10-07T01:43:33.969Z,1005.11
2022-10-07T01:44:33.967Z,1005.11
2022-10-07T01:45:33.955Z,1005.08
2022-10-07T01:46:33.987Z,1005.09
2022-10-07T01:47:33.946Z,1005.07
2022-10-07T01:48:33.929Z,1005.01
2022-10-07T01:49:33.922Z,1005.08
2022-10-07T01:50:33.914Z,1005.06
2022-10-07T01:51:33.907Z,1005.09
2022-10-07T01:52:33.901Z,1005.00
2022-10-07T01:53:33.889Z,1004.99
2022-10-07T01:54:33.869Z,1004.98
2022-10-07T01:55:34.873Z,1004.96
2022-10-07T01:56:33.863Z,1005.00
2022-10-07T01:57:33.868Z,1004.99
2022-10-07T01:58:33.846Z,1005.03
2022-10-07T01:59:33.845Z,1004.97
2022-10-07T02:00:33.836Z,1004.98
2022-10-07T02:01:33.861Z,1004.94
2022-10-07T02:02:33.812Z,1004.93
2022-10-07T02:03:33.847Z,1004.94
2022-10-07T02:04:33.795Z,1004.92
2022-10-07T02:05:33.794Z,1004.96
2022-10-07T02:06:33.781Z,1004.91
2022-10-07T02:07:33.768Z,1004.89
2022-10-07T02:08:33.774Z,1004.88
2022-10-07T02:09:33.754Z,1004.87
2022-10-07T02:10:33.750Z,1004.89
2022-10-07T02:11:33.744Z,1004.84
2022-10-07T02:12:33.726Z,1004.87
2022-10-07T02:13:33.718Z,1004.84
2022-10-07T02:14:33.711Z,1004.86
2022-10-07T02:15:33.721Z,1004.76
2022-10-07T02:16:33.698Z,1004.82
2022-10-07T02:17:33.684Z,1004.85
2022-10-07T02:18:33.677Z,1004.81
2022-10-07T02:19:33.667Z,1004.88
2022-10-07T02:20:33.661Z,1004.82
2022-10-07T02:21:33.662Z,1004.82
2022-10-07T02:22:33.648Z,1004.78
2022-10-07T02:23:33.641Z,1004.76
2022-10-07T02:24:33.633Z,1004.75
2022-10-07T02:25:33.625Z,1004.74
2022-10-07T02:26:33.630Z,1004.73
2022-10-07T02:27:34.322Z,1004.73
2022-10-07T02:28:33.702Z,1004.71
2022-10-07T02:29:33.592Z,1004.78
2022-10-07T02:30:33.588Z,1004.74
2022-10-07T02:31:33.718Z,1004.69
2022-10-07T02:32:33.567Z,1004.71
2022-10-07T02:33:33.561Z,1004.69
2022-10-07T02:34:33.553Z,1004.68
2022-10-07T02:35:33.547Z,1004.67
2022-10-07T02:36:33.542Z,1004.62
2022-10-07T02:37:33.542Z,1004.60
2022-10-07T02:38:33.529Z,1004.61
2022-10-07T02:39:33.513Z,1004.58
2022-10-07T02:40:33.507Z,1004.57
2022-10-07T02:41:33.504Z,1004.61
2022-10-07T02:42:33.501Z,1004.56
2022-10-07T02:43:33.483Z,1004.51
2022-10-07T02:44:33.489Z,1004.55
2022-10-07T02:45:33.482Z,1004.54
2022-10-07T02:46:33.490Z,1004.58
2022-10-07T02:47:33.463Z,1004.57
2022-10-07T02:48:33.428Z,1004.55
2022-10-07T02:49:34.440Z,1004.50
2022-10-07T02:50:33.425Z,1004.56
2022-10-07T02:51:33.420Z,1004.51
2022-10-07T02:52:33.420Z,1004.51
2022-10-07T02:53:33.404Z,1004.49
2022-10-07T02:54:33.406Z,1004.47
2022-10-07T02:55:33.898Z,1004.45
2022-10-07T02:56:33.378Z,1004.41
2022-10-07T02:57:34.329Z,1004.46
2022-10-07T02:58:33.366Z,1004.42
2022-10-07T02:59:33.366Z,1004.41
2022-10-07T03:00:33.351Z,1004.39
2022-10-07T03:01:33.443Z,1004.38
2022-10-07T03:02:33.339Z,1004.35
2022-10-07T03:03:33.411Z,1004.38
2022-10-07T03:04:33.323Z,1004.29
2022-10-07T03:05:33.306Z,1004.36
2022-10-07T03:06:33.302Z,1004.34
2022-10-07T03:07:33.294Z,1004.32
2022-10-07T03:08:33.295Z,1004.34
2022-10-07T03:09:33.281Z,1004.34
2022-10-07T03:10:33.278Z,1004.31
2022-10-07T03:11:33.260Z,1004.35
2022-10-07T03:12:33.260Z,1004.36
2022-10-07T03:13:33.263Z,1004.36
2022-10-07T03:14:33.247Z,1004.39
2022-10-07T03:15:33.305Z,1004.36
2022-10-07T03:16:33.899Z,1004.37
2022-10-07T03:17:33.220Z,1004.32
2022-10-07T03:18:33.211Z,1004.35
2022-10-07T03:19:33.207Z,1004.41
2022-10-07T03:20:33.199Z,1004.39
2022-10-07T03:21:33.181Z,1004.37
2022-10-07T03:22:33.178Z,1004.36
2022-10-07T03:23:33.171Z,1004.37
2022-10-07T03:24:33.168Z,1004.34
2022-10-07T03:25:33.151Z,1004.42
2022-10-07T03:26:33.140Z,1004.42
2022-10-07T03:27:33.136Z,1004.39
2022-10-07T03:28:33.202Z,1004.40
2022-10-07T03:29:33.124Z,1004.33
2022-10-07T03:30:33.106Z,1004.34
2022-10-07T03:31:33.128Z,1004.34
2022-10-07T03:32:33.096Z,1004.33
2022-10-07T03:33:33.093Z,1004.35
2022-10-07T03:34:33.086Z,1004.29
2022-10-07T03:35:33.068Z,1004.31
2022-10-07T03:36:33.063Z,1004.33
2022-10-07T03:37:33.059Z,1004.29
2022-10-07T03:38:33.058Z,1004.26
2022-10-07T03:39:33.049Z,1004.32
2022-10-07T03:40:33.038Z,1004.25
2022-10-07T03:41:33.022Z,1004.25
2022-10-07T03:42:35.847Z,1004.25
2022-10-07T03:43:33.010Z,1004.28
2022-10-07T03:44:33.002Z,1004.28
2022-10-07T03:45:35.920Z,1004.30
2022-10-07T03:46:34.014Z,1004.28
2022-10-07T03:47:32.968Z,1004.24
2022-10-07T03:48:32.966Z,1004.24
2022-10-07T03:49:32.966Z,1004.28
2022-10-07T03:50:32.945Z,1004.24
2022-10-07T03:51:32.939Z,1004.26
2022-10-07T03:52:32.939Z,1004.17
2022-10-07T03:53:32.920Z,1004.22
2022-10-07T03:54:32.912Z,1004.28
2022-10-07T03:55:32.905Z,1004.25
2022-10-07T03:56:33.412Z,1004.26
2022-10-07T03:57:32.900Z,1004.24
2022-10-07T03:58:32.886Z,1004.28
2022-10-07T03:59:32.878Z,1004.28
2022-10-07T04:00:32.874Z,1004.25
2022-10-07T04:01:32.915Z,1004.20
2022-10-07T04:02:32.897Z,1004.18
2022-10-07T04:03:33.417Z,1004.14
2022-10-07T04:04:32.837Z,1004.13
2022-10-07T04:05:32.840Z,1004.20
2022-10-07T04:06:32.829Z,1004.12
2022-10-07T04:07:32.816Z,1004.10
2022-10-07T04:08:32.985Z,1004.09
2022-10-07T04:09:32.798Z,1004.11
2022-10-07T04:10:32.796Z,1004.04
2022-10-07T04:11:32.793Z,1004.10
2022-10-07T04:12:32.776Z,1004.10
2022-10-07T04:13:32.767Z,1004.08
2022-10-07T04:14:32.767Z,1004.05
2022-10-07T04:15:32.757Z,1004.06
2022-10-07T04:16:37.169Z,1003.99
2022-10-07T04:17:34.747Z,1004.00
2022-10-07T04:18:32.758Z,1004.01
2022-10-07T04:19:32.721Z,1004.00
2022-10-07T04:20:32.725Z,1003.98
2022-10-07T04:21:32.739Z,1003.94
2022-10-07T04:22:32.699Z,1003.96
2022-10-07T04:23:32.690Z,1003.95
2022-10-07T04:24:32.692Z,1004.01
2022-10-07T04:25:32.685Z,1003.92
2022-10-07T04:26:32.669Z,1003.95
2022-10-07T04:27:50.721Z,1003.95
2022-10-07T04:28:34.824Z,1003.92
2022-10-07T04:29:39.129Z,1003.89
2022-10-07T04:30:34.657Z,1003.90
2022-10-07T04:31:33.668Z,1003.86
2022-10-07T04:32:32.634Z,1003.89
2022-10-07T04:33:32.618Z,1003.90
2022-10-07T04:34:32.615Z,1003.86
2022-10-07T04:35:32.611Z,1003.82
2022-10-07T04:36:32.600Z,1003.82
2022-10-07T04:37:32.591Z,1003.87
2022-10-07T04:38:32.587Z,1003.87
2022-10-07T04:39:56.197Z,1003.90
2022-10-07T04:40:35.347Z,1003.92
2022-10-07T04:41:32.566Z,1003.88
2022-10-07T04:42:32.552Z,1003.84
2022-10-07T04:43:32.542Z,1003.83
2022-10-07T04:44:32.553Z,1003.78
2022-10-07T04:45:32.532Z,1003.82
2022-10-07T04:46:32.563Z,1003.76
2022-10-07T04:47:32.522Z,1003.77
2022-10-07T04:48:32.509Z,1003.78
2022-10-07T04:49:32.500Z,1003.79
2022-10-07T04:50:33.346Z,1003.76
2022-10-07T04:51:32.485Z,1003.76
2022-10-07T04:52:32.476Z,1003.71
2022-10-07T04:53:33.350Z,1003.74
2022-10-07T04:54:32.527Z,1003.75
2022-10-07T04:55:32.460Z,1003.70
2022-10-07T04:56:32.967Z,1003.71
2022-10-07T04:57:32.435Z,1003.66
2022-10-07T04:58:32.430Z,1003.69
2022-10-07T04:59:33.724Z,1003.69
2022-10-07T05:00:32.528Z,1003.66
2022-10-07T05:01:32.411Z,1003.64
2022-10-07T05:02:32.423Z,1003.69
2022-10-07T05:03:32.392Z,1003.63
2022-10-07T05:04:32.379Z,1003.67
2022-10-07T05:05:32.366Z,1003.68
2022-10-07T05:06:32.367Z,1003.61
2022-10-07T05:07:32.355Z,1003.67
2022-10-07T05:08:32.350Z,1003.69
2022-10-07T05:09:32.387Z,1003.66
2022-10-07T05:10:32.923Z,1003.60
2022-10-07T05:11:32.343Z,1003.64
2022-10-07T05:12:32.326Z,1003.63
2022-10-07T05:13:32.306Z,1003.68
2022-10-07T05:14:32.304Z,1003.62
2022-10-07T05:15:32.297Z,1003.66
2022-10-07T05:16:32.358Z,1003.65
2022-10-07T05:17:32.304Z,1003.69
2022-10-07T05:18:32.279Z,1003.65
2022-10-07T05:19:32.261Z,1003.66
2022-10-07T05:20:32.272Z,1003.64
2022-10-07T05:21:32.257Z,1003.61
2022-10-07T05:22:32.246Z,1003.62
2022-10-07T05:23:32.243Z,1003.62
2022-10-07T05:24:32.885Z,1003.62
2022-10-07T05:25:32.217Z,1003.56
2022-10-07T05:26:32.222Z,1003.63
2022-10-07T05:27:32.235Z,1003.61
2022-10-07T05:28:32.251Z,1003.58
2022-10-07T05:29:32.189Z,1003.57
2022-10-07T05:30:32.180Z,1003.57
2022-10-07T05:31:32.243Z,1003.56
2022-10-07T05:32:32.160Z,1003.61
2022-10-07T05:33:32.160Z,1003.64
2022-10-07T05:34:32.177Z,1003.65
2022-10-07T05:35:32.132Z,1003.63
2022-10-07T05:36:32.140Z,1003.61
2022-10-07T05:37:32.132Z,1003.65
2022-10-07T05:38:32.115Z,1003.66
2022-10-07T05:39:32.123Z,1003.58
2022-10-07T05:40:32.095Z,1003.57
2022-10-07T05:41:32.088Z,1003.57
2022-10-07T05:42:32.079Z,1003.62
2022-10-07T05:43:32.074Z,1003.58
2022-10-07T05:44:32.075Z,1003.53
2022-10-07T05:45:32.119Z,1003.54
2022-10-07T05:46:32.057Z,1003.51
2022-10-07T05:47:32.048Z,1003.52
2022-10-07T05:48:36.589Z,1003.55
2022-10-07T05:49:34.036Z,1003.49
2022-10-07T05:50:32.030Z,1003.50
2022-10-07T05:51:32.017Z,1003.51
2022-10-07T05:52:32.005Z,1003.53
2022-10-07T05:53:31.996Z,1003.50
2022-10-07T05:54:31.994Z,1003.49
2022-10-07T05:55:34.688Z,1003.44
2022-10-07T05:56:31.985Z,1003.46
2022-10-07T05:57:31.980Z,1003.48
2022-10-07T05:58:32.969Z,1003.48
2022-10-07T05:59:33.929Z,1003.50
2022-10-07T06:00:31.989Z,1003.47
2022-10-07T06:01:31.951Z,1003.51
2022-10-07T06:02:32.027Z,1003.47
2022-10-07T06:03:31.926Z,1003.45
2022-10-07T06:04:33.877Z,1003.41
2022-10-07T06:05:31.914Z,1003.49
2022-10-07T06:06:31.906Z,1003.47
2022-10-07T06:07:31.891Z,1003.46
2022-10-07T06:08:31.887Z,1003.44
2022-10-07T06:09:31.876Z,1003.47
2022-10-07T06:10:31.865Z,1003.49
2022-10-07T06:11:31.855Z,1003.40
2022-10-07T06:12:31.843Z,1003.42
2022-10-07T06:13:31.848Z,1003.41
2022-10-07T06:14:32.444Z,1003.48
2022-10-07T06:15:31.904Z,1003.44
2022-10-07T06:16:31.891Z,1003.43
2022-10-07T06:17:31.802Z,1003.39
2022-10-07T06:18:31.819Z,1003.47
2022-10-07T06:19:31.793Z,1003.47
2022-10-07T06:20:31.780Z,1003.50
2022-10-07T06:21:31.780Z,1003.42
2022-10-07T06:22:31.765Z,1003.39
2022-10-07T06:23:32.381Z,1003.47
2022-10-07T06:24:31.749Z,1003.43
2022-10-07T06:25:31.744Z,1003.44
2022-10-07T06:26:31.739Z,1003.42
2022-10-07T06:27:31.741Z,1003.44
2022-10-07T06:28:31.805Z,1003.45
2022-10-07T06:29:32.366Z,1003.49
2022-10-07T06:30:31.773Z,1003.53
2022-10-07T06:31:31.699Z,1003.46
2022-10-07T06:32:31.698Z,1003.51
2022-10-07T06:33:31.692Z,1003.51
2022-10-07T06:34:31.677Z,1003.47
2022-10-07T06:35:31.666Z,1003.53
2022-10-07T06:36:31.658Z,1003.59
2022-10-07T06:37:31.776Z,1003.58
2022-10-07T06:38:31.653Z,1003.53
2022-10-07T06:39:31.644Z,1003.56
2022-10-07T06:40:31.628Z,1003.53
2022-10-07T06:41:31.637Z,1003.57
2022-10-07T06:42:31.618Z,1003.51
2022-10-07T06:43:31.607Z,1003.53
2022-10-07T06:44:31.598Z,1003.52
2022-10-07T06:45:31.793Z,1003.55
2022-10-07T06:46:31.689Z,1003.55
2022-10-07T06:47:31.573Z,1003.56
2022-10-07T06:48:31.572Z,1003.58
2022-10-07T06:49:31.582Z,1003.60
2022-10-07T06:50:31.559Z,1003.56
2022-10-07T06:51:31.558Z,1003.54
2022-10-07T06:52:31.536Z,1003.55
2022-10-07T06:53:31.542Z,1003.53
2022-10-07T06:54:31.565Z,1003.55
2022-10-07T06:55:31.517Z,1003.54
2022-10-07T06:56:31.528Z,1003.59
2022-10-07T06:57:45.252Z,1003.53
2022-10-07T06:58:33.494Z,1003.52
2022-10-07T06:59:31.565Z,1003.59
2022-10-07T07:00:31.489Z,1003.46
2022-10-07T07:01:32.537Z,1003.51
2022-10-07T07:02:31.547Z,1003.50
2022-10-07T07:03:31.454Z,1003.50
2022-10-07T07:04:31.446Z,1003.46
2022-10-07T07:05:32.957Z,1003.51
2022-10-07T07:06:31.432Z,1003.53
2022-10-07T07:07:31.428Z,1003.50
2022-10-07T07:08:31.413Z,1003.57
2022-10-07T07:09:31.405Z,1003.58
2022-10-07T07:10:31.403Z,1003.47
2022-10-07T07:11:31.409Z,1003.49
2022-10-07T07:12:35.466Z,1003.45
2022-10-07T07:13:31.383Z,1003.46
2022-10-07T07:14:34.913Z,1003.56
2022-10-07T07:15:31.364Z,1003.47
2022-10-07T07:16:31.421Z,1003.53
2022-10-07T07:17:33.350Z,1003.52
2022-10-07T07:18:31.947Z,1003.48
2022-10-07T07:19:35.459Z,1003.46
2022-10-07T07:20:38.375Z,1003.42
2022-10-07T07:21:31.303Z,1003.48
2022-10-07T07:22:31.328Z,1003.46
2022-10-07T07:23:31.327Z,1003.45
2022-10-07T07:24:31.284Z,1003.45
2022-10-07T07:25:31.294Z,1003.45
2022-10-07T07:26:31.267Z,1003.49
2022-10-07T07:27:31.267Z,1003.41
2022-10-07T07:28:31.364Z,1003.48
2022-10-07T07:29:31.256Z,1003.48
2022-10-07T07:30:31.262Z,1003.42
2022-10-07T07:31:31.879Z,1003.44
2022-10-07T07:32:31.254Z,1003.41
2022-10-07T07:33:31.216Z,1003.37
2022-10-07T07:34:31.207Z,1003.32
2022-10-07T07:35:31.199Z,1003.30
2022-10-07T07:36:31.202Z,1003.35
2022-10-07T07:37:31.190Z,1003.39
2022-10-07T07:38:31.173Z,1003.39
2022-10-07T07:39:31.167Z,1003.33
2022-10-07T07:40:31.170Z,1003.26
2022-10-07T07:41:31.154Z,1003.28
2022-10-07T07:42:31.142Z,1003.31
2022-10-07T07:43:31.144Z,1003.29
2022-10-07T07:44:34.129Z,1003.37
2022-10-07T07:45:32.139Z,1003.37
2022-10-07T07:46:31.127Z,1003.25
2022-10-07T07:47:31.114Z,1003.28
2022-10-07T07:48:31.100Z,1003.28
2022-10-07T07:49:31.090Z,1003.21
2022-10-07T07:50:32.873Z,1003.27
2022-10-07T07:51:31.066Z,1003.31
2022-10-07T07:52:31.965Z,1003.25
2022-10-07T07:53:31.109Z,1003.26
2022-10-07T07:54:32.952Z,1003.27
2022-10-07T07:55:31.032Z,1003.27
2022-10-07T07:56:31.024Z,1003.24
2022-10-07T07:57:31.016Z,1003.26
2022-10-07T07:58:31.029Z,1003.23
2022-10-07T07:59:31.009Z,1003.23
2022-10-07T08:00:30.997Z,1003.22
2022-10-07T08:01:31.029Z,1003.25
2022-10-07T08:02:32.024Z,1003.21
2022-10-07T08:03:30.994Z,1003.22
2022-10-07T08:04:30.975Z,1003.22
2022-10-07T08:05:33.888Z,1003.19
2022-10-07T08:06:30.964Z,1003.19
2022-10-07T08:07:30.952Z,1003.09
2022-10-07T08:08:30.946Z,1003.14
2022-10-07T08:09:30.957Z,1003.13
2022-10-07T08:10:32.454Z,1003.15
2022-10-07T08:11:30.913Z,1003.10
2022-10-07T08:12:30.913Z,1003.11
2022-10-07T08:13:30.898Z,1003.13
2022-10-07T08:14:30.901Z,1003.06
2022-10-07T08:15:30.912Z,1003.06
2022-10-07T08:16:30.873Z,1003.05
2022-10-07T08:17:32.459Z,1003.03
2022-10-07T08:18:30.855Z,1003.06
2022-10-07T08:19:30.868Z,1003.08
2022-10-07T08:20:30.834Z,1003.06
2022-10-07T08:21:31.393Z,1002.95
2022-10-07T08:22:30.820Z,1003.00
2022-10-07T08:23:30.817Z,1003.03
2022-10-07T08:24:30.807Z,1003.08
2022-10-07T08:25:31.390Z,1002.96
2022-10-07T08:26:30.796Z,1003.01
2022-10-07T08:27:30.800Z,1003.01
2022-10-07T08:28:30.828Z,1002.95
2022-10-07T08:29:30.771Z,1003.05
2022-10-07T08:30:30.767Z,1002.97
2022-10-07T08:31:31.124Z,1002.99
2022-10-07T08:32:30.774Z,1002.92
2022-10-07T08:33:30.731Z,1002.91
2022-10-07T08:34:30.729Z,1002.86
2022-10-07T08:35:30.726Z,1002.89
2022-10-07T08:36:31.712Z,1002.86
2022-10-07T08:37:30.726Z,1002.91
2022-10-07T08:38:30.703Z,1002.82
2022-10-07T08:39:30.691Z,1002.87
2022-10-07T08:40:30.980Z,1002.79
2022-10-07T08:41:32.500Z,1002.78
2022-10-07T08:42:31.673Z,1002.76
2022-10-07T08:43:30.652Z,1002.66
2022-10-07T08:44:30.643Z,1002.65
2022-10-07T08:45:30.638Z,1002.69
2022-10-07T08:46:30.655Z,1002.71
2022-10-07T08:47:30.634Z,1002.66
2022-10-07T08:48:30.623Z,1002.63
2022-10-07T08:49:30.605Z,1002.62
2022-10-07T08:50:30.608Z,1002.66
2022-10-07T08:51:30.587Z,1002.61
2022-10-07T08:52:31.395Z,1002.64
2022-10-07T08:53:30.580Z,1002.60
2022-10-07T08:54:30.578Z,1002.59
2022-10-07T08:55:31.508Z,1002.46
2022-10-07T08:56:30.558Z,1002.50
2022-10-07T08:57:32.394Z,1002.45
2022-10-07T08:58:30.562Z,1002.42
2022-10-07T08:59:30.535Z,1002.44
2022-10-07T09:00:30.515Z,1002.38
2022-10-07T09:01:30.600Z,1002.46
2022-10-07T09:02:30.521Z,1002.42
2022-10-07T09:03:31.472Z,1002.38
2022-10-07T09:04:30.489Z,1002.40
2022-10-07T09:05:30.487Z,1002.34
2022-10-07T09:06:30.475Z,1002.31
2022-10-07T09:07:30.476Z,1002.32
2022-10-07T09:08:30.461Z,1002.29
2022-10-07T09:09:30.454Z,1002.33
2022-10-07T09:10:30.438Z,1002.29
2022-10-07T09:11:31.444Z,1002.30
2022-10-07T09:12:31.400Z,1002.30
2022-10-07T09:14:36.406Z,1002.25
2022-10-07T09:15:36.442Z,1002.24
2022-10-07T09:16:37.499Z,1002.23
2022-10-07T09:17:37.480Z,1002.18
2022-10-07T09:18:37.467Z,1002.16
2022-10-07T09:19:37.460Z,1002.18
2022-10-07T09:20:38.130Z,1002.14
2022-10-07T09:21:37.453Z,1002.09
2022-10-07T09:22:37.445Z,1002.10
2022-10-07T09:23:37.420Z,1002.09
2022-10-07T09:24:37.513Z,1002.05
2022-10-07T09:25:37.411Z,1002.05
2022-10-07T09:26:37.536Z,1002.03
2022-10-07T09:27:37.391Z,1002.04
2022-10-07T09:28:37.466Z,1002.04
2022-10-07T09:29:37.479Z,1001.96
2022-10-07T09:30:38.051Z,1001.99
2022-10-07T09:31:37.448Z,1001.88
2022-10-07T09:32:37.358Z,1001.94
2022-10-07T09:33:38.128Z,1001.90
2022-10-07T09:34:37.336Z,1001.91
2022-10-07T09:35:37.322Z,1001.93
2022-10-07T09:36:37.323Z,1001.94
2022-10-07T09:37:38.305Z,1001.85
2022-10-07T09:38:37.316Z,1001.84
2022-10-07T09:39:37.309Z,1001.86
2022-10-07T09:40:37.296Z,1001.84
2022-10-07T09:41:37.279Z,1001.76
2022-10-07T09:42:37.266Z,1001.83
2022-10-07T09:43:37.271Z,1001.78
2022-10-07T09:44:37.270Z,1001.77
2022-10-07T09:45:37.246Z,1001.70
2022-10-07T09:46:37.278Z,1001.68
2022-10-07T09:47:37.225Z,1001.64
2022-10-07T09:48:37.232Z,1001.66
2022-10-07T09:49:37.215Z,1001.62
2022-10-07T09:50:37.239Z,1001.70
2022-10-07T09:51:37.212Z,1001.60
2022-10-07T09:52:37.205Z,1001.64
2022-10-07T09:53:37.190Z,1001.58
2022-10-07T09:54:37.178Z,1001.60
2022-10-07T09:55:37.166Z,1001.56
2022-10-07T09:56:37.165Z,1001.55
2022-10-07T09:57:37.149Z,1001.52
2022-10-07T09:58:37.184Z,1001.48
2022-10-07T09:59:37.646Z,1001.48
2022-10-07T10:00:37.144Z,1001.48
2022-10-07T10:01:37.155Z,1001.44
2022-10-07T10:02:37.260Z,1001.43
2022-10-07T10:03:37.195Z,1001.42
2022-10-07T10:04:37.098Z,1001.44
2022-10-07T10:05:37.107Z,1001.46
2022-10-07T10:06:37.072Z,1001.40
2022-10-07T10:07:37.075Z,1001.38
2022-10-07T10:08:37.091Z,1001.43
2022-10-07T10:10:43.895Z,1001.37
2022-10-07T10:11:43.897Z,1001.42
2022-10-07T10:12:44.136Z,1001.41
2022-10-07T10:13:43.875Z,1001.34
2022-10-07T10:14:43.869Z,1001.34
2022-10-07T10:15:43.929Z,1001.29
2022-10-07T10:16:43.853Z,1001.32
2022-10-07T10:17:43.845Z,1001.35
2022-10-07T10:18:43.835Z,1001.28
2022-10-07T10:19:43.825Z,1001.32
2022-10-07T10:20:43.822Z,1001.32
2022-10-07T10:21:43.836Z,1001.21
2022-10-07T10:22:44.055Z,1001.28
2022-10-07T10:23:43.787Z,1001.25
2022-10-07T10:24:43.811Z,1001.20
2022-10-07T10:25:43.786Z,1001.15
2022-10-07T10:26:43.768Z,1001.14
2022-10-07T10:27:43.797Z,1001.04
2022-10-07T10:28:43.800Z,1001.06
2022-10-07T10:29:43.742Z,1001.01
2022-10-07T10:30:44.745Z,1001.06
2022-10-07T10:31:43.728Z,1000.99
2022-10-07T10:32:45.151Z,1001.00
2022-10-07T10:33:44.811Z,1001.02
2022-10-07T10:34:45.349Z,1001.00
2022-10-07T10:35:44.793Z,1001.01
2022-10-07T10:36:44.797Z,1001.05
2022-10-07T10:37:44.782Z,1001.00
2022-10-07T10:38:44.767Z,1000.95
2022-10-07T10:39:44.763Z,1000.88
2022-10-07T10:40:44.797Z,1000.92
2022-10-07T10:41:44.737Z,1000.85
2022-10-07T10:42:45.151Z,1000.89
2022-10-07T10:43:44.722Z,1000.85
2022-10-07T10:44:44.718Z,1000.89
2022-10-07T10:45:44.706Z,1000.81
2022-10-07T10:46:48.448Z,1000.85
2022-10-07T10:47:46.696Z,1000.80
2022-10-07T10:48:44.701Z,1000.81
2022-10-07T10:49:44.682Z,1000.78
2022-10-07T10:50:44.662Z,1000.80
2022-10-07T10:51:44.668Z,1000.66
2022-10-07T10:52:44.861Z,1000.69
2022-10-07T10:53:44.653Z,1000.64
2022-10-07T10:54:44.634Z,1000.58
2022-10-07T10:55:44.653Z,1000.61
2022-10-07T10:56:44.617Z,1000.61
2022-10-07T10:57:44.644Z,1000.55
2022-10-07T10:58:44.612Z,1000.59
2022-10-07T10:59:44.600Z,1000.54
2022-10-07T11:00:45.271Z,1000.52
2022-10-07T11:01:44.617Z,1000.46
2022-10-07T11:02:44.909Z,1000.46
2022-10-07T11:03:44.562Z,1000.48
2022-10-07T11:04:46.355Z,1000.39
2022-10-07T11:05:44.648Z,1000.36
2022-10-07T11:06:48.365Z,1000.37
2022-10-07T11:07:44.566Z,1000.36
2022-10-07T11:08:49.296Z,1000.35
2022-10-07T11:09:44.516Z,1000.32
2022-10-07T11:10:44.514Z,1000.36
2022-10-07T11:11:44.508Z,1000.33
2022-10-07T11:12:45.552Z,1000.32
2022-10-07T11:13:44.515Z,1000.26
2022-10-07T11:14:44.504Z,1000.28
2022-10-07T11:15:45.523Z,1000.19
2022-10-07T11:16:44.487Z,1000.22
2022-10-07T11:17:45.496Z,1000.22
2022-10-07T11:18:44.445Z,1000.17
2022-10-07T11:19:44.445Z,1000.16
2022-10-07T11:20:44.933Z,1000.13
2022-10-07T11:21:45.634Z,1000.14
2022-10-07T11:22:44.885Z,1000.14
2022-10-07T11:23:44.421Z,1000.14
2022-10-07T11:25:17.801Z,1000.16
2022-10-07T11:25:44.391Z,1000.09
2022-10-07T11:26:44.383Z,1000.08
2022-10-07T11:27:44.402Z,1000.05
2022-10-07T11:28:44.419Z,1000.06
2022-10-07T11:29:44.364Z,999.99
2022-10-07T11:30:44.356Z,1000.01
2022-10-07T11:31:44.481Z,1000.04
2022-10-07T11:32:44.672Z,999.97
2022-10-07T11:33:44.325Z,999.96
2022-10-07T11:34:44.334Z,999.92
2022-10-07T11:35:44.310Z,999.87
2022-10-07T11:36:44.297Z,999.93
2022-10-07T11:37:44.284Z,999.91
2022-10-07T11:38:44.276Z,999.92
2022-10-07T11:39:44.272Z,999.83
2022-10-07T11:40:44.299Z,999.82
2022-10-07T11:41:44.253Z,999.83
2022-10-07T11:42:44.808Z,999.77
2022-10-07T11:43:44.228Z,999.79
2022-10-07T11:44:45.226Z,999.77
2022-10-07T11:45:44.246Z,999.72
2022-10-07T11:46:44.297Z,999.70
2022-10-07T11:47:44.254Z,999.68
2022-10-07T11:48:44.806Z,999.69
2022-10-07T11:49:44.255Z,999.64
2022-10-07T11:50:44.957Z,999.62
2022-10-07T11:51:44.182Z,999.57
2022-10-07T11:52:44.385Z,999.59
2022-10-07T11:53:44.149Z,999.55
2022-10-07T11:54:44.148Z,999.57
2022-10-07T11:55:44.132Z,999.53
2022-10-07T11:56:44.126Z,999.53
2022-10-07T11:57:44.127Z,999.54
2022-10-07T11:58:44.115Z,999.48
2022-10-07T11:59:44.113Z,999.53
2022-10-07T12:00:44.105Z,999.45
2022-10-07T12:01:44.148Z,999.47
2022-10-07T12:02:44.430Z,999.41
2022-10-07T12:03:44.086Z,999.41
2022-10-07T12:04:44.066Z,999.42
2022-10-07T12:05:44.056Z,999.40
2022-10-07T12:06:44.075Z,999.41
2022-10-07T12:07:44.046Z,999.38
2022-10-07T12:08:44.059Z,999.29
2022-10-07T12:09:44.031Z,999.32
2022-10-07T12:10:44.017Z,999.27